Time;durP1;ratioP1;P1;durP2;ratioP2;P2;SDS_P1;SDS_P2;PMS_P1;PMS_P2;Temp;Humidity;BMP_temperature;BMP_pressure;BME280_temperature;BME280_humidity;BME280_pressure;Samples;Min_cycle;Max_cycle;Signal;HPM_P1;HPM_P2
2022/05/22 09:36:30;;;;;;;10.98;2.53;;;17.50;90.60;;;;;;5095040;27;1302498;-54
2022/05/22 09:39:16;;;;;;;8.27;2.42;;;17.40;91.20;;;;;;5108243;28;20067;-51
2022/05/22 12:53:20;;;;;;;6.72;2.00;;;20.10;79.90;;;;;;5065678;27;2317365;-56
2022/05/22 12:55:47;;;;;;;7.38;2.20;;;20.10;82.20;;;;;;5111936;27;20055;-53
2022/05/22 12:58:14;;;;;;;7.20;2.10;;;20.10;79.80;;;;;;5111089;28;20051;-55
2022/05/22 13:00:41;;;;;;;6.80;2.10;;;20.30;79.70;;;;;;5111293;28;20052;-56
2022/05/22 13:03:07;;;;;;;7.30;1.60;;;20.40;79.50;;;;;;5110893;28;20072;-52
2022/05/22 13:05:34;;;;;;;6.32;1.83;;;20.40;78.40;;;;;;5111044;28;20039;-56
2022/05/22 13:08:24;;;;;;;8.07;2.50;;;20.50;80.90;;;;;;5111160;28;20413;-50
2022/05/22 13:10:51;;;;;;;8.20;2.42;;;20.50;79.70;;;;;;5114110;28;20520;-48
2022/05/22 13:13:18;;;;;;;6.93;2.00;;;20.40;81.00;;;;;;5110570;28;20044;-54
2022/05/22 13:15:45;;;;;;;8.32;2.03;;;20.60;80.10;;;;;;5112601;28;20044;-53
2022/05/22 13:18:12;;;;;;;5.97;2.10;;;20.70;79.80;;;;;;5110531;28;20123;-52
2022/05/22 13:20:39;;;;;;;6.15;1.73;;;20.90;80.20;;;;;;5110204;28;20066;-50
2022/05/22 13:23:06;;;;;;;7.30;1.67;;;21.00;79.70;;;;;;5110522;28;20044;-51
2022/05/22 13:25:34;;;;;;;9.32;2.08;;;21.10;78.60;;;;;;5110505;28;20118;-51
2022/05/22 13:28:00;;;;;;;6.35;2.15;;;21.20;79.20;;;;;;5115452;28;20036;-51
2022/05/22 13:30:27;;;;;;;5.40;1.55;;;21.30;78.40;;;;;;5110611;28;20036;-52
2022/05/22 13:32:54;;;;;;;9.38;1.83;;;21.50;78.40;;;;;;5110224;28;20389;-49
2022/05/22 13:35:21;;;;;;;8.38;2.10;;;21.70;78.30;;;;;;5110384;28;20044;-49
2022/05/22 13:37:48;;;;;;;9.07;1.98;;;21.80;76.60;;;;;;5109664;28;20089;-48
2022/05/22 13:40:15;;;;;;;6.90;2.00;;;22.00;77.40;;;;;;5103780;28;20040;-49
2022/05/22 13:42:44;;;;;;;7.38;1.88;;;22.10;75.80;;;;;;5110259;28;20119;-52
2022/05/22 13:45:11;;;;;;;9.23;2.25;;;22.20;76.00;;;;;;5103569;28;20483;-50
2022/05/22 13:47:38;;;;;;;7.15;2.13;;;22.20;76.80;;;;;;5109216;28;20028;-47
2022/05/22 13:52:50;;;;;;;5.25;1.80;;;22.60;75.60;;;;;;5109494;28;20066;-53
2022/05/22 13:55:17;;;;;;;6.45;1.80;;;22.70;74.30;;;;;;5114600;27;20475;-53
2022/05/22 13:57:44;;;;;;;5.97;2.00;;;22.70;75.60;;;;;;5109694;28;20110;-51
2022/05/22 14:00:13;;;;;;;6.85;2.20;;;22.90;74.60;;;;;;5109714;28;20040;-51
2022/05/22 14:02:40;;;;;;;5.93;1.75;;;22.90;74.20;;;;;;5108577;28;20498;-47
2022/05/22 14:05:07;;;;;;;7.20;1.80;;;22.90;73.40;;;;;;5095924;28;20040;-45
2022/05/22 14:07:34;;;;;;;8.25;1.80;;;22.90;72.20;;;;;;5095998;28;20505;-52
2022/05/22 14:10:01;;;;;;;8.20;1.75;;;22.90;72.20;;;;;;5095889;28;20064;-55
2022/05/22 14:12:29;;;;;;;9.02;1.85;;;22.80;72.10;;;;;;5100249;28;20052;-50
2022/05/22 14:14:56;;;;;;;6.68;1.98;;;22.80;73.00;;;;;;5095806;28;20059;-50
2022/05/22 14:17:23;;;;;;;5.15;1.38;;;22.80;72.20;;;;;;5095736;28;20040;-52
2022/05/22 14:19:54;;;;;;;4.82;1.30;;;22.80;71.20;;;;;;5095729;28;20102;-50
2022/05/22 14:22:21;;;;;;;5.13;2.30;;;22.70;70.40;;;;;;5096044;28;20437;-50
2022/05/22 14:24:54;;;;;;;5.50;1.83;;;22.80;72.10;;;;;;5098865;28;20048;-54
2022/05/22 14:27:26;;;;;;;9.05;1.63;;;22.90;71.10;;;;;;5095539;28;20085;-50
2022/05/22 14:29:53;;;;;;;6.78;1.58;;;22.90;69.90;;;;;;5095585;28;20044;-48
2022/05/22 14:32:19;;;;;;;5.80;1.67;;;22.90;70.00;;;;;;5095239;28;20059;-53
2022/05/22 14:34:47;;;;;;;7.65;1.60;;;22.80;69.30;;;;;;5095749;28;20055;-50
2022/05/22 14:37:13;;;;;;;5.20;1.60;;;22.70;71.30;;;;;;5096444;28;20043;-51
2022/05/22 14:39:40;;;;;;;6.22;1.73;;;22.80;71.90;;;;;;5100106;28;20082;-52
2022/05/22 14:42:08;;;;;;;8.48;1.50;;;22.90;70.60;;;;;;5095674;28;20040;-54
2022/05/22 14:44:35;;;;;;;6.95;1.60;;;22.90;72.00;;;;;;5097444;28;20044;-55
2022/05/22 14:47:02;;;;;;;6.03;1.73;;;22.90;70.40;;;;;;5095406;28;20399;-52
2022/05/22 14:49:28;;;;;;;5.80;1.80;;;23.00;69.80;;;;;;5095536;28;20471;-49
2022/05/22 14:51:56;;;;;;;7.43;1.92;;;23.00;69.30;;;;;;5095294;28;20052;-55
2022/05/22 14:54:23;;;;;;;5.40;1.73;;;23.00;70.20;;;;;;5100484;28;20044;-56
2022/05/22 14:56:50;;;;;;;10.02;2.15;;;23.10;70.40;;;;;;5095277;28;20040;-56
2022/05/22 14:59:16;;;;;;;7.40;1.85;;;23.20;70.80;;;;;;5095206;28;20452;-54
2022/05/22 15:01:43;;;;;;;6.15;1.95;;;23.20;70.00;;;;;;5099371;28;20051;-56
2022/05/22 15:04:12;;;;;;;14.00;1.80;;;23.30;69.60;;;;;;5095056;28;20040;-51
2022/05/22 15:06:38;;;;;;;6.30;1.48;;;23.40;69.20;;;;;;5095132;28;20040;-47
2022/05/22 15:09:05;;;;;;;6.25;1.83;;;23.50;68.50;;;;;;5098230;28;20044;-50
2022/05/22 15:11:32;;;;;;;6.35;1.73;;;23.50;66.80;;;;;;5094973;28;20040;-53
2022/05/22 15:13:59;;;;;;;5.47;1.50;;;23.70;66.10;;;;;;5095078;28;20059;-51
2022/05/22 15:16:25;;;;;;;6.20;1.95;;;23.80;66.20;;;;;;5087551;28;20044;-53
2022/05/22 15:21:38;;;;;;;4.70;1.60;;;23.80;62.80;;;;;;5094756;28;20085;-50
2022/05/22 15:26:50;;;;;;;3.88;1.23;;;24.10;60.80;;;;;;5091156;28;20394;-52
2022/05/22 15:29:17;;;;;;;4.05;1.02;;;24.20;59.30;;;;;;5090723;28;20086;-47
2022/05/22 15:31:48;;;;;;;3.78;1.52;;;24.30;58.90;;;;;;5092749;28;20513;-54
2022/05/22 15:34:17;;;;;;;3.45;1.40;;;24.50;57.80;;;;;;5093610;28;20048;-48
2022/05/22 15:36:44;;;;;;;4.05;1.00;;;24.60;57.40;;;;;;5094355;28;20105;-49
2022/05/22 15:39:13;;;;;;;3.92;1.00;;;24.80;55.70;;;;;;5094183;28;20498;-52
2022/05/22 15:41:46;;;;;;;6.65;1.10;;;24.70;55.60;;;;;;5097940;28;20050;-55
2022/05/22 15:44:13;;;;;;;3.53;0.70;;;24.70;53.60;;;;;;5095691;28;20115;-48
2022/05/22 15:46:41;;;;;;;2.72;0.90;;;24.70;51.70;;;;;;5094194;28;20036;-53
2022/05/22 15:51:53;;;;;;;3.08;0.65;;;25.20;51.70;;;;;;5093794;28;20055;-55
2022/05/22 15:54:22;;;;;;;3.20;0.88;;;25.10;49.40;;;;;;5098100;28;20076;-51
2022/05/22 15:56:49;;;;;;;3.45;1.00;;;24.90;49.60;;;;;;5094021;28;20044;-55
2022/05/22 15:59:17;;;;;;;2.38;0.98;;;24.90;49.60;;;;;;5093590;28;20043;-53
2022/05/22 16:01:44;;;;;;;2.70;1.00;;;24.80;49.20;;;;;;5093707;28;20077;-53
2022/05/22 16:04:10;;;;;;;3.22;1.35;;;24.60;47.60;;;;;;5093849;28;20449;-53
2022/05/22 16:06:37;;;;;;;3.08;0.98;;;24.40;48.60;;;;;;5095197;28;20040;-54
2022/05/22 16:09:04;;;;;;;2.88;0.73;;;24.20;47.90;;;;;;5093934;28;20078;-54
2022/05/22 16:11:30;;;;;;;2.13;0.80;;;24.10;49.10;;;;;;5086898;28;20036;-53
2022/05/22 16:13:59;;;;;;;4.75;0.93;;;24.20;50.00;;;;;;5093582;28;20040;-54
2022/05/22 16:16:28;;;;;;;3.50;0.90;;;24.30;49.20;;;;;;5087307;28;20487;-50
2022/05/22 16:18:55;;;;;;;3.45;1.25;;;24.60;46.30;;;;;;5087211;28;20040;-50
2022/05/22 16:21:22;;;;;;;1.95;0.70;;;25.10;47.10;;;;;;5093817;28;20040;-54
2022/05/22 16:23:49;;;;;;;2.47;0.80;;;25.50;45.70;;;;;;5097782;28;20485;-52
2022/05/22 16:26:15;;;;;;;2.28;0.70;;;25.80;45.40;;;;;;5093544;28;20039;-54
2022/05/22 16:28:42;;;;;;;1.75;1.00;;;25.90;42.50;;;;;;5093542;28;20040;-48
2022/05/22 16:31:11;;;;;;;2.17;0.70;;;25.70;42.90;;;;;;5093771;28;20483;-53
2022/05/22 16:33:38;;;;;;;2.20;0.80;;;25.40;41.20;;;;;;5092675;28;20078;-50
2022/05/22 16:36:04;;;;;;;4.28;0.70;;;25.20;41.30;;;;;;5093420;28;20051;-52
2022/05/22 16:38:31;;;;;;;2.10;0.80;;;25.00;42.50;;;;;;5095351;28;20052;-48
2022/05/22 16:40:58;;;;;;;2.90;0.80;;;24.90;44.10;;;;;;5094303;28;20044;-54
2022/05/22 16:43:45;;;;;;;4.22;0.85;;;24.80;44.40;;;;;;5093216;28;20153;-55
2022/05/22 16:46:11;;;;;;;2.05;0.80;;;24.60;43.60;;;;;;5098352;28;20036;-51
2022/05/22 16:54:09;;;;;;;2.55;0.70;;;24.10;44.80;;;;;;5093181;28;20040;-48
2022/05/22 16:56:36;;;;;;;2.35;0.75;;;24.30;46.30;;;;;;5096666;28;20467;-51
2022/05/22 16:59:04;;;;;;;4.35;0.65;;;24.40;45.80;;;;;;5093250;28;20036;-47
2022/05/22 17:01:31;;;;;;;5.47;0.98;;;24.30;46.20;;;;;;5097495;28;20036;-51
2022/05/22 17:03:58;;;;;;;2.75;1.02;;;24.20;46.60;;;;;;5094045;28;20114;-50
2022/05/22 17:06:25;;;;;;;3.83;1.02;;;24.10;48.20;;;;;;5095748;28;20059;-48
2022/05/22 17:08:52;;;;;;;3.70;1.70;;;24.10;48.50;;;;;;5094392;28;20037;-54
2022/05/22 17:11:19;;;;;;;3.13;1.60;;;24.00;50.10;;;;;;5094629;28;20394;-50
2022/05/22 17:13:45;;;;;;;3.40;1.27;;;23.90;49.20;;;;;;5094580;28;20051;-53
2022/05/22 17:16:12;;;;;;;4.72;1.38;;;23.80;50.00;;;;;;5093094;28;20066;-48
2022/05/22 17:18:39;;;;;;;2.78;0.98;;;23.80;50.10;;;;;;5093496;28;20403;-53
2022/05/22 17:21:06;;;;;;;2.95;1.02;;;23.70;50.80;;;;;;5092972;28;20043;-51
2022/05/22 17:23:32;;;;;;;3.13;1.13;;;23.90;50.40;;;;;;5096857;28;20067;-55
2022/05/22 17:25:59;;;;;;;3.83;1.20;;;24.10;50.60;;;;;;5092858;28;20085;-52
2022/05/22 17:28:26;;;;;;;4.13;1.35;;;24.30;49.80;;;;;;5095723;28;20078;-54
2022/05/22 17:30:53;;;;;;;3.67;1.30;;;24.40;49.70;;;;;;5092941;28;20105;-52
2022/05/22 17:33:21;;;;;;;2.42;1.20;;;24.40;48.10;;;;;;5094101;28;20177;-49
2022/05/22 17:35:48;;;;;;;3.30;1.30;;;24.30;47.90;;;;;;5091591;28;20406;-51
2022/05/22 17:38:15;;;;;;;2.75;0.98;;;24.20;47.80;;;;;;5093736;28;20093;-51
2022/05/22 17:40:44;;;;;;;4.28;1.08;;;24.30;47.80;;;;;;5096696;28;20479;-53
2022/05/22 17:43:11;;;;;;;5.10;1.10;;;24.50;47.50;;;;;;5099837;28;20040;-51
2022/05/22 17:45:43;;;;;;;2.42;0.80;;;24.60;47.00;;;;;;5096810;28;20040;-52
2022/05/22 17:48:11;;;;;;;4.00;0.90;;;24.90;47.90;;;;;;5096403;28;20449;-51
2022/05/22 17:50:38;;;;;;;3.58;0.80;;;25.10;47.20;;;;;;5097554;28;20036;-50
2022/05/22 17:53:10;;;;;;;2.92;1.00;;;24.90;47.10;;;;;;5096138;28;20052;-51
2022/05/22 17:55:36;;;;;;;3.05;1.08;;;24.50;46.70;;;;;;5097317;28;20032;-52
2022/05/22 17:58:03;;;;;;;3.00;0.98;;;24.10;47.50;;;;;;5096411;28;20097;-54
2022/05/22 18:00:30;;;;;;;6.80;1.15;;;23.70;48.30;;;;;;5096359;28;20063;-53
2022/05/22 18:02:59;;;;;;;3.30;1.00;;;23.40;48.90;;;;;;5101694;28;20044;-51
2022/05/22 18:05:26;;;;;;;3.85;1.45;;;23.10;48.80;;;;;;5089324;28;20039;-50
2022/05/22 18:07:53;;;;;;;8.20;2.28;;;22.90;49.20;;;;;;5099713;28;20060;-51
2022/05/22 18:16:01;;;;;;;13.55;5.20;;;22.70;49.60;;;;;;5093585;28;20127;-52
2022/05/22 18:16:02;;;;;;;2.65;1.05;;;22.70;50.30;;;;;;5095882;28;20040;-53
2022/05/22 18:18:29;;;;;;;3.25;1.08;;;22.60;51.20;;;;;;5100569;28;20044;-50
2022/05/22 18:20:55;;;;;;;2.75;1.02;;;22.50;51.10;;;;;;5095807;28;20079;-52
2022/05/22 18:23:22;;;;;;;3.00;1.13;;;22.40;51.80;;;;;;5097916;28;20487;-50
2022/05/22 18:25:49;;;;;;;3.05;1.00;;;22.40;52.30;;;;;;5095489;28;20048;-52
2022/05/22 18:28:15;;;;;;;3.90;0.95;;;22.40;52.10;;;;;;5097050;28;20043;-53
2022/05/22 18:30:44;;;;;;;2.85;1.20;;;22.30;52.50;;;;;;5095860;28;20123;-51
2022/05/22 18:33:11;;;;;;;3.22;1.00;;;22.20;52.90;;;;;;5096749;28;20044;-54
2022/05/22 18:35:38;;;;;;;4.03;1.10;;;22.10;53.20;;;;;;5100004;28;20048;-51
2022/05/22 18:38:06;;;;;;;2.50;0.93;;;22.10;53.50;;;;;;5095001;28;20051;-53
2022/05/22 18:40:33;;;;;;;2.55;1.08;;;22.00;53.90;;;;;;5099918;28;20044;-50
2022/05/22 18:43:01;;;;;;;3.70;1.00;;;21.90;54.80;;;;;;5095437;28;20044;-50
2022/05/22 18:45:28;;;;;;;3.08;0.80;;;21.70;54.80;;;;;;5096167;28;20032;-48
2022/05/22 18:47:55;;;;;;;3.15;1.13;;;21.70;55.60;;;;;;5095053;28;20458;-52
2022/05/22 18:50:22;;;;;;;3.40;1.08;;;21.60;56.60;;;;;;5099999;28;20036;-48
2022/05/22 18:52:49;;;;;;;4.22;1.08;;;21.50;56.60;;;;;;5094667;28;20502;-55
2022/05/22 18:55:15;;;;;;;4.00;1.35;;;21.40;56.80;;;;;;5096189;28;20040;-54
2022/05/22 18:57:44;;;;;;;2.60;1.15;;;21.30;57.40;;;;;;5095336;28;20044;-54
2022/05/22 19:00:11;;;;;;;3.30;0.98;;;21.20;57.50;;;;;;5093842;28;20044;-54
2022/05/22 19:02:38;;;;;;;4.97;1.30;;;21.10;58.40;;;;;;5098487;28;20066;-50
2022/05/22 19:05:05;;;;;;;3.30;0.98;;;20.90;58.40;;;;;;5095009;28;20097;-50
2022/05/22 19:07:31;;;;;;;4.25;1.83;;;20.90;58.90;;;;;;5099197;28;20036;-55
2022/05/22 19:09:59;;;;;;;3.53;1.15;;;20.80;59.30;;;;;;5094891;28;20446;-54
2022/05/22 19:12:26;;;;;;;3.85;1.35;;;20.80;59.60;;;;;;5094655;28;20040;-53
2022/05/22 19:15:04;;;;;;;3.25;1.30;;;20.70;60.20;;;;;;5090268;28;20376;-52
2022/05/22 19:17:31;;;;;;;3.00;1.30;;;20.60;60.60;;;;;;5094899;28;20043;-54
2022/05/22 19:19:58;;;;;;;2.58;1.17;;;20.50;61.10;;;;;;5100149;28;20101;-56
2022/05/22 19:22:26;;;;;;;4.78;1.45;;;20.50;62.30;;;;;;5094718;28;20077;-57
2022/05/22 19:24:53;;;;;;;4.72;1.30;;;20.40;62.60;;;;;;5096524;28;20040;-52
2022/05/22 19:27:20;;;;;;;3.25;1.38;;;20.30;63.30;;;;;;5094660;28;20403;-53
2022/05/22 19:29:48;;;;;;;6.22;1.60;;;20.20;64.20;;;;;;5099937;28;20036;-53
2022/05/22 19:32:17;;;;;;;3.83;1.40;;;20.10;65.20;;;;;;5093327;28;20453;-51
2022/05/22 19:34:44;;;;;;;4.50;1.63;;;20.00;65.80;;;;;;5098459;28;20044;-50
2022/05/22 19:37:10;;;;;;;3.72;1.50;;;19.90;66.60;;;;;;5094306;28;20082;-54
2022/05/22 19:39:37;;;;;;;4.90;1.35;;;19.80;67.20;;;;;;5093957;28;20089;-56
2022/05/22 19:44:49;;;;;;;;;;;19.70;68.00;;;;;;5094489;28;20131;-55
2022/05/22 19:47:17;;;;;;;6.10;2.08;;;19.60;69.40;;;;;;5097506;28;19920;-48
2022/05/22 19:49:49;;;;;;;4.82;2.10;;;19.40;69.30;;;;;;5094291;28;20035;-53
2022/05/22 19:52:20;;;;;;;5.70;1.67;;;19.30;70.50;;;;;;5093930;28;20052;-47
2022/05/22 20:00:17;;;;;;;7.43;2.08;;;19.00;72.40;;;;;;5098119;28;20056;-53
2022/05/22 20:02:44;;;;;;;6.85;1.90;;;18.90;73.10;;;;;;5093508;28;20044;-50
2022/05/22 20:05:11;;;;;;;6.88;1.55;;;18.80;74.10;;;;;;5095291;28;20035;-54
2022/05/22 20:07:38;;;;;;;6.13;1.73;;;18.70;74.50;;;;;;5091963;28;20089;-51
2022/05/22 20:10:04;;;;;;;7.35;2.03;;;18.60;75.10;;;;;;5093563;28;20042;-53
2022/05/22 20:12:31;;;;;;;5.53;1.88;;;18.50;75.60;;;;;;5092374;28;20074;-56
2022/05/22 20:14:58;;;;;;;8.45;2.60;;;18.50;76.40;;;;;;5094086;28;20044;-52
2022/05/22 20:17:25;;;;;;;6.75;2.10;;;18.40;76.90;;;;;;5087038;28;20043;-54
2022/05/22 20:19:52;;;;;;;8.52;2.20;;;18.30;77.50;;;;;;5093722;28;20046;-48
2022/05/22 20:22:18;;;;;;;5.07;1.77;;;18.30;77.40;;;;;;5096957;28;20082;-49
2022/05/22 20:24:45;;;;;;;5.78;2.00;;;18.20;78.40;;;;;;5093589;28;20075;-48
2022/05/22 20:27:12;;;;;;;5.93;1.98;;;18.10;78.70;;;;;;5096555;28;20043;-52
2022/05/22 20:29:39;;;;;;;5.53;2.00;;;18.00;78.80;;;;;;5093649;28;20047;-53
2022/05/22 20:32:05;;;;;;;7.68;2.00;;;18.00;80.00;;;;;;5087303;28;20044;-47
2022/05/22 20:34:32;;;;;;;5.45;1.85;;;17.80;80.50;;;;;;5093405;28;20040;-54
2022/05/22 20:36:59;;;;;;;4.57;1.70;;;17.80;80.80;;;;;;5098530;28;20090;-48
2022/05/22 20:39:26;;;;;;;8.73;2.15;;;17.70;81.10;;;;;;5093382;28;20044;-50
2022/05/22 20:41:52;;;;;;;6.25;1.90;;;17.60;81.90;;;;;;5097185;28;20495;-50
2022/05/22 20:44:19;;;;;;;6.43;1.85;;;17.60;82.30;;;;;;5093312;28;20046;-45
2022/05/22 20:46:46;;;;;;;5.75;2.10;;;17.50;82.80;;;;;;5092601;28;20089;-50
2022/05/22 20:49:13;;;;;;;7.88;2.40;;;17.50;83.30;;;;;;5093240;28;20036;-47
2022/05/22 20:51:40;;;;;;;7.72;1.85;;;17.40;83.70;;;;;;5093023;28;20040;-51
2022/05/22 20:54:07;;;;;;;6.38;2.85;;;17.40;83.90;;;;;;5089883;28;20044;-51
2022/05/22 20:56:49;;;;;;;6.47;2.40;;;17.30;84.30;;;;;;5093792;28;20073;-51
2022/05/22 20:59:16;;;;;;;7.50;2.40;;;17.30;84.90;;;;;;5092607;28;20550;-52
2022/05/22 21:01:42;;;;;;;7.60;2.30;;;17.30;84.90;;;;;;5093061;28;20106;-52
2022/05/22 21:04:09;;;;;;;7.35;2.47;;;17.20;85.20;;;;;;5091168;28;20139;-51
2022/05/22 21:06:36;;;;;;;8.32;2.13;;;17.20;85.60;;;;;;5092976;28;20405;-49
2022/05/22 21:09:03;;;;;;;6.13;2.10;;;17.20;85.90;;;;;;5092874;28;20556;-54
2022/05/22 21:11:30;;;;;;;7.78;2.03;;;17.20;86.10;;;;;;5090514;28;20040;-52
2022/05/22 21:13:56;;;;;;;7.70;2.45;;;17.10;86.80;;;;;;5097425;28;20048;-49
2022/05/22 21:16:30;;;;;;;8.90;2.00;;;17.00;87.00;;;;;;5094834;28;20044;-49
2022/05/22 21:18:57;;;;;;;7.25;2.50;;;16.90;87.40;;;;;;5096896;28;20050;-53
2022/05/22 21:21:24;;;;;;;7.28;2.25;;;16.90;88.50;;;;;;5096652;28;20483;-47
2022/05/22 21:29:21;;;;;;;10.63;2.67;;;16.70;88.70;;;;;;5096944;28;20044;-51
2022/05/22 21:31:48;;;;;;;6.72;2.15;;;16.70;89.20;;;;;;5092893;28;20076;-48
2022/05/22 21:34:15;;;;;;;8.32;2.15;;;16.60;88.90;;;;;;5095779;28;20056;-48
2022/05/22 21:36:42;;;;;;;8.95;2.45;;;16.60;89.60;;;;;;5092393;28;20032;-52
2022/05/22 21:39:08;;;;;;;7.18;2.38;;;16.60;89.40;;;;;;5096419;28;20036;-53
2022/05/22 21:41:35;;;;;;;7.25;2.10;;;16.50;89.60;;;;;;5096324;28;20040;-53
2022/05/22 21:44:04;;;;;;;6.82;1.95;;;16.50;90.00;;;;;;5096118;28;20044;-52
2022/05/22 21:46:31;;;;;;;8.23;2.40;;;16.50;90.00;;;;;;5096301;28;20130;-50
2022/05/22 21:48:58;;;;;;;6.35;2.25;;;16.50;90.10;;;;;;5096380;28;20066;-45
2022/05/22 21:51:25;;;;;;;6.20;2.22;;;16.50;90.20;;;;;;5096179;28;20036;-49
2022/05/22 21:53:52;;;;;;;6.07;2.30;;;16.50;90.20;;;;;;5099867;28;20050;-55
2022/05/22 21:56:18;;;;;;;10.88;2.55;;;16.50;90.20;;;;;;5096167;28;20040;-53
2022/05/22 21:58:46;;;;;;;8.52;2.97;;;16.40;90.30;;;;;;5096138;28;20040;-50
2022/05/22 22:01:12;;;;;;;6.28;2.15;;;16.30;90.50;;;;;;5096263;28;20036;-50
2022/05/22 22:03:39;;;;;;;6.57;2.38;;;16.30;90.70;;;;;;5089057;28;20389;-48
2022/05/22 22:06:06;;;;;;;6.78;2.03;;;16.20;91.00;;;;;;5095766;28;20483;-50
2022/05/22 22:08:33;;;;;;;9.65;2.95;;;16.20;90.90;;;;;;5095699;28;20331;-49
2022/05/22 22:11:00;;;;;;;9.15;3.47;;;16.20;91.00;;;;;;5094752;28;20447;-54
2022/05/22 22:13:27;;;;;;;13.10;4.00;;;16.20;90.90;;;;;;5097214;28;20040;-50
2022/05/22 22:15:53;;;;;;;8.57;4.18;;;16.20;90.80;;;;;;5093902;28;20039;-55
2022/05/22 22:18:20;;;;;;;9.35;4.18;;;16.20;91.20;;;;;;5093635;28;20075;-52
2022/05/22 22:20:47;;;;;;;11.77;4.00;;;16.10;91.10;;;;;;5094254;28;20046;-51
2022/05/22 22:23:13;;;;;;;11.48;3.95;;;16.10;91.30;;;;;;5096012;28;20089;-52
2022/05/22 22:25:40;;;;;;;10.05;4.25;;;16.10;91.50;;;;;;5090770;28;20044;-47
2022/05/22 22:28:07;;;;;;;10.43;4.72;;;16.00;91.60;;;;;;5092528;28;20486;-52
2022/05/22 22:30:33;;;;;;;9.98;4.45;;;16.00;91.90;;;;;;5096058;28;20046;-47
2022/05/22 22:33:01;;;;;;;14.23;4.28;;;15.90;91.80;;;;;;5095219;28;20441;-54
2022/05/22 22:35:28;;;;;;;10.65;4.70;;;15.90;92.00;;;;;;5089768;28;20390;-49
2022/05/22 22:37:56;;;;;;;9.07;4.00;;;15.90;92.00;;;;;;5089666;28;20105;-50
